createdAt,value
2023-01-10T00:00:03.278Z,81.17
2023-01-10T00:02:31.249Z,81.66
2023-01-10T00:04:59.421Z,81.46
2023-01-10T00:07:27.253Z,81.65
2023-01-10T00:09:54.979Z,80.95
2023-01-10T00:12:40.612Z,81.46
2023-01-10T00:15:08.461Z,81.39
2023-01-10T00:17:36.208Z,81.35
2023-01-10T00:20:03.929Z,81.69
2023-01-10T00:22:31.578Z,81.00
2023-01-10T00:24:59.635Z,81.66
2023-01-10T00:27:27.525Z,81.48
2023-01-10T00:29:56.149Z,81.46
2023-01-10T00:32:23.750Z,80.91
2023-01-10T00:34:51.473Z,80.87
2023-01-10T00:37:19.475Z,81.15
2023-01-10T00:39:47.130Z,81.29
2023-01-10T00:42:32.261Z,81.07
2023-01-10T00:44:59.974Z,81.14
2023-01-10T00:47:27.610Z,81.70
2023-01-10T00:49:55.517Z,81.30
2023-01-10T00:52:23.112Z,81.61
2023-01-10T00:54:50.737Z,81.34
2023-01-10T00:57:18.449Z,80.85
2023-01-10T00:59:46.567Z,81.49
2023-01-10T01:02:14.515Z,81.81
2023-01-10T01:04:42.297Z,81.59
2023-01-10T01:07:10.294Z,81.41
2023-01-10T01:09:59.001Z,81.54
2023-01-10T01:12:26.678Z,81.54
2023-01-10T01:14:54.291Z,81.14
2023-01-10T01:17:21.955Z,81.46
2023-01-10T01:19:49.578Z,80.94
2023-01-10T01:22:17.577Z,81.41
2023-01-10T01:24:45.260Z,81.11
2023-01-10T01:27:13.255Z,81.18
2023-01-10T01:29:43.530Z,81.66
2023-01-10T01:32:11.359Z,81.21
2023-01-10T01:34:39.229Z,81.14
2023-01-10T01:37:07.079Z,81.24
2023-01-10T01:39:34.741Z,81.51
2023-01-10T01:42:02.372Z,81.35
2023-01-10T01:44:29.956Z,81.28
2023-01-10T01:46:57.646Z,81.04
2023-01-10T01:49:25.316Z,81.25
2023-01-10T01:51:52.905Z,81.01
2023-01-10T01:54:20.541Z,80.88
2023-01-10T01:56:48.190Z,81.31
2023-01-10T01:59:15.975Z,81.06
2023-01-10T02:01:43.966Z,81.46
2023-01-10T02:04:11.685Z,81.43
2023-01-10T02:06:39.328Z,81.29
2023-01-10T02:09:07.014Z,81.36
2023-01-10T02:11:34.973Z,81.38
2023-01-10T02:14:03.757Z,81.44
2023-01-10T02:16:32.102Z,81.91
2023-01-10T02:18:59.727Z,81.57
2023-01-10T02:21:27.367Z,81.67
2023-01-10T02:23:55.384Z,81.38
2023-01-10T02:26:23.292Z,81.29
2023-01-10T02:28:50.924Z,81.46
2023-01-10T02:31:18.592Z,81.49
2023-01-10T02:33:46.694Z,81.40
2023-01-10T02:36:14.291Z,81.41
2023-01-10T02:38:41.957Z,81.44
2023-01-10T02:41:09.612Z,81.58
2023-01-10T02:43:37.245Z,81.28
2023-01-10T02:46:04.974Z,81.34
2023-01-10T02:48:32.974Z,81.76
2023-01-10T02:51:00.815Z,81.25
2023-01-10T02:53:28.482Z,81.30
2023-01-10T02:55:56.485Z,81.10
2023-01-10T02:58:24.092Z,81.29
2023-01-10T03:00:52.177Z,81.26
2023-01-10T03:03:20.066Z,81.59
2023-01-10T03:05:47.711Z,81.63
2023-01-10T03:08:15.451Z,81.78
2023-01-10T03:10:43.052Z,81.95
2023-01-10T03:13:11.050Z,82.05
2023-01-10T03:18:20.330Z,81.79
2023-01-10T03:20:47.970Z,81.59
2023-01-10T03:23:15.931Z,81.73
2023-01-10T03:25:43.572Z,82.37
2023-01-10T03:28:11.207Z,82.10
2023-01-10T03:30:38.828Z,81.96
2023-01-10T03:33:06.399Z,82.39
2023-01-10T03:35:34.432Z,82.45
2023-01-10T03:38:04.041Z,83.01
2023-01-10T03:40:31.625Z,82.94
2023-01-10T03:43:16.655Z,83.06
2023-01-10T03:45:44.690Z,83.32
2023-01-10T03:48:12.338Z,83.21
2023-01-10T03:50:40.020Z,83.63
2023-01-10T03:53:07.641Z,83.33
2023-01-10T03:55:35.424Z,82.69
2023-01-10T03:58:03.736Z,82.77
2023-01-10T04:00:32.033Z,82.76
2023-01-10T04:02:59.641Z,82.48
2023-01-10T04:05:27.332Z,82.66
2023-01-10T04:07:54.987Z,82.44
2023-01-10T04:10:25.154Z,82.86
2023-01-10T04:12:53.092Z,82.33
2023-01-10T04:15:20.715Z,82.32
2023-01-10T04:17:48.952Z,81.91
2023-01-10T04:20:16.585Z,82.09
2023-01-10T04:22:44.580Z,81.90
2023-01-10T04:25:12.350Z,81.83
2023-01-10T04:27:40.033Z,82.16
2023-01-10T04:30:07.618Z,82.24
2023-01-10T04:32:35.260Z,82.21
2023-01-10T04:35:03.301Z,82.37
2023-01-10T04:37:30.899Z,82.79
2023-01-10T04:39:58.521Z,82.22
2023-01-10T04:42:26.740Z,82.46
2023-01-10T04:44:54.364Z,82.50
2023-01-10T04:47:22.300Z,82.15
2023-01-10T04:49:49.980Z,82.17
2023-01-10T04:52:17.557Z,81.97
2023-01-10T04:54:45.166Z,82.75
2023-01-10T04:57:12.822Z,82.36
2023-01-10T04:59:40.863Z,82.53
2023-01-10T05:02:08.800Z,82.33
2023-01-10T05:04:36.841Z,82.51
2023-01-10T05:07:04.453Z,82.68
2023-01-10T05:09:32.027Z,82.27
2023-01-10T05:12:00.026Z,82.08
2023-01-10T05:14:27.857Z,81.99
2023-01-10T05:16:56.220Z,81.86
2023-01-10T05:19:23.871Z,82.03
2023-01-10T05:21:53.471Z,81.58
2023-01-10T05:24:21.464Z,81.74
2023-01-10T05:26:50.593Z,81.63
2023-01-10T05:29:18.215Z,81.62
2023-01-10T05:31:45.876Z,81.17
2023-01-10T05:34:14.104Z,81.54
2023-01-10T05:36:42.146Z,81.49
2023-01-10T05:39:10.056Z,81.41
2023-01-10T05:41:37.792Z,81.44
2023-01-10T05:44:05.424Z,81.76
2023-01-10T05:46:33.071Z,81.41
2023-01-10T05:49:01.148Z,81.14
2023-01-10T05:51:28.780Z,81.14
2023-01-10T05:53:57.673Z,81.10
2023-01-10T05:56:25.479Z,81.18
2023-01-10T05:59:00.920Z,81.32
2023-01-10T06:01:33.829Z,81.30
2023-01-10T06:04:01.564Z,81.28
2023-01-10T06:06:29.219Z,81.10
2023-01-10T06:08:59.193Z,81.33
2023-01-10T06:11:30.168Z,81.29
2023-01-10T06:13:58.240Z,81.01
2023-01-10T06:16:26.035Z,81.03
2023-01-10T06:18:53.757Z,81.11
2023-01-10T06:21:21.629Z,80.84
2023-01-10T06:23:49.318Z,80.85
2023-01-10T06:26:17.236Z,80.68
2023-01-10T06:28:44.897Z,81.22
2023-01-10T06:31:15.185Z,81.23
2023-01-10T06:33:44.152Z,80.62
2023-01-10T06:36:11.900Z,81.17
2023-01-10T06:38:40.026Z,80.92
2023-01-10T06:41:14.070Z,80.99
2023-01-10T06:43:41.822Z,81.02
2023-01-10T06:46:10.310Z,81.08
2023-01-10T06:48:38.033Z,80.90
2023-01-10T06:51:06.208Z,80.68
2023-01-10T06:53:33.833Z,80.70
2023-01-10T06:56:01.480Z,80.61
2023-01-10T06:58:29.249Z,80.89
2023-01-10T07:00:56.967Z,80.77
2023-01-10T07:03:25.335Z,80.75
2023-01-10T07:05:53.050Z,80.72
2023-01-10T07:08:20.735Z,80.73
2023-01-10T07:10:48.490Z,80.63
2023-01-10T07:13:16.771Z,80.59
2023-01-10T07:15:45.028Z,80.70
2023-01-10T07:18:12.916Z,80.59
2023-01-10T07:20:40.715Z,80.48
2023-01-10T07:23:08.358Z,80.58
2023-01-10T07:25:36.045Z,80.67
2023-01-10T07:28:04.209Z,80.81
2023-01-10T07:30:31.902Z,80.51
2023-01-10T07:33:01.450Z,80.58
2023-01-10T07:35:29.701Z,80.56
2023-01-10T07:37:57.361Z,80.62
2023-01-10T07:40:25.594Z,80.62
2023-01-10T07:42:53.469Z,80.53
2023-01-10T07:45:21.146Z,80.57
2023-01-10T07:47:48.820Z,80.76
2023-01-10T07:50:17.973Z,80.54
2023-01-10T07:52:46.472Z,80.32
2023-01-10T07:55:14.241Z,80.95
2023-01-10T07:57:42.329Z,80.00
2023-01-10T08:00:10.132Z,81.07
2023-01-10T08:02:37.987Z,80.38
2023-01-10T08:05:06.654Z,80.58
2023-01-10T08:07:34.410Z,80.75
2023-01-10T08:10:02.149Z,80.48
2023-01-10T08:12:30.047Z,80.45
2023-01-10T08:14:57.708Z,80.65
2023-01-10T08:17:25.960Z,80.58
2023-01-10T08:19:53.892Z,80.19
2023-01-10T08:22:21.624Z,80.29
2023-01-10T08:24:49.505Z,79.63
2023-01-10T08:27:17.632Z,80.07
2023-01-10T08:29:46.176Z,80.30
2023-01-10T08:32:13.943Z,80.16
2023-01-10T08:34:41.712Z,80.06
2023-01-10T08:37:09.515Z,79.93
2023-01-10T08:39:39.570Z,79.67
2023-01-10T08:42:07.757Z,80.43
2023-01-10T08:44:35.596Z,79.96
2023-01-10T08:47:03.462Z,80.18
2023-01-10T08:49:31.323Z,80.02
2023-01-10T08:51:59.346Z,79.99
2023-01-10T08:54:28.559Z,80.16
2023-01-10T08:56:56.455Z,79.94
2023-01-10T08:59:24.273Z,79.79
2023-01-10T09:01:52.499Z,79.73
2023-01-10T09:04:20.455Z,79.81
2023-01-10T09:06:48.828Z,79.60
2023-01-10T09:09:16.630Z,79.49
2023-01-10T09:11:44.537Z,79.70
2023-01-10T09:14:12.245Z,79.43
2023-01-10T09:16:40.198Z,79.69
2023-01-10T09:19:08.454Z,79.64
2023-01-10T09:21:36.547Z,79.89
2023-01-10T09:24:04.944Z,79.53
2023-01-10T09:26:32.807Z,79.59
2023-01-10T09:29:00.589Z,79.60
2023-01-10T09:31:28.899Z,79.70
2023-01-10T09:33:56.959Z,79.12
2023-01-10T09:36:24.838Z,79.09
2023-01-10T09:38:52.707Z,79.18
2023-01-10T09:41:20.582Z,79.40
2023-01-10T09:43:49.508Z,79.60
2023-01-10T09:46:17.731Z,79.28
2023-01-10T09:48:45.759Z,79.25
2023-01-10T09:51:13.625Z,79.21
2023-01-10T09:53:41.539Z,78.81
2023-01-10T09:56:09.747Z,79.27
2023-01-10T09:58:37.576Z,79.25
2023-01-10T10:01:05.405Z,79.18
2023-01-10T10:03:33.420Z,78.97
2023-01-10T10:06:11.512Z,79.14
2023-01-10T10:08:40.141Z,78.59
2023-01-10T10:11:07.923Z,78.89
2023-01-10T10:13:35.692Z,78.83
2023-01-10T10:16:04.757Z,78.73
2023-01-10T10:18:32.523Z,78.46
2023-01-10T10:21:01.197Z,78.40
2023-01-10T10:23:28.990Z,78.21
2023-01-10T10:25:56.733Z,77.89
2023-01-10T10:28:24.857Z,77.38
2023-01-10T10:30:52.833Z,77.98
2023-01-10T10:33:20.999Z,77.98
2023-01-10T10:35:48.891Z,77.12
2023-01-10T10:38:16.708Z,76.94
2023-01-10T10:40:44.523Z,76.50
2023-01-10T10:43:12.319Z,76.14
2023-01-10T10:45:41.670Z,75.57
2023-01-10T10:48:09.552Z,74.98
2023-01-10T10:50:37.932Z,73.97
2023-01-10T10:53:05.812Z,74.36
2023-01-10T10:55:33.622Z,74.99
2023-01-10T10:58:01.992Z,74.79
2023-01-10T11:00:30.208Z,74.21
2023-01-10T11:02:58.093Z,73.46
2023-01-10T11:05:25.980Z,72.15
2023-01-10T11:07:54.026Z,71.88
2023-01-10T11:10:37.474Z,72.08
2023-01-10T11:13:05.572Z,72.42
2023-01-10T11:15:33.449Z,72.86
2023-01-10T11:18:01.326Z,72.94
2023-01-10T11:20:29.239Z,72.87
2023-01-10T11:22:57.916Z,73.47
2023-01-10T11:25:25.924Z,73.56
2023-01-10T11:27:54.055Z,73.20
2023-01-10T11:30:21.921Z,72.72
2023-01-10T11:32:50.283Z,73.02
2023-01-10T11:35:18.797Z,73.19
2023-01-10T11:37:46.715Z,72.84
2023-01-10T11:40:14.513Z,73.22
2023-01-10T11:42:42.490Z,72.93
2023-01-10T11:45:10.433Z,73.20
2023-01-10T11:47:45.332Z,73.24
2023-01-10T11:50:13.723Z,73.11
2023-01-10T11:52:41.710Z,72.90
2023-01-10T11:55:10.237Z,72.95
2023-01-10T11:57:38.295Z,73.16
2023-01-10T12:00:06.822Z,73.43
2023-01-10T12:02:34.830Z,73.25
2023-01-10T12:05:02.839Z,73.27
2023-01-10T12:07:30.672Z,73.62
2023-01-10T12:09:58.541Z,73.38
2023-01-10T12:12:28.024Z,73.43
2023-01-10T12:14:55.828Z,73.48
2023-01-10T12:17:23.807Z,73.58
2023-01-10T12:19:53.567Z,73.49
2023-01-10T12:22:21.499Z,73.43
2023-01-10T12:24:50.307Z,73.74
2023-01-10T12:27:18.400Z,73.61
2023-01-10T12:29:46.228Z,74.07
2023-01-10T12:32:14.001Z,73.53
2023-01-10T12:34:42.064Z,73.62
2023-01-10T12:37:11.509Z,73.51
2023-01-10T12:39:39.283Z,73.58
2023-01-10T12:42:24.772Z,73.90
2023-01-10T12:44:52.997Z,73.64
2023-01-10T12:47:21.157Z,73.29
2023-01-10T12:49:49.205Z,73.61
2023-01-10T12:52:17.029Z,73.57
2023-01-10T12:54:44.960Z,73.34
2023-01-10T12:57:13.466Z,73.19
2023-01-10T12:59:42.104Z,73.45
2023-01-10T13:02:10.145Z,73.08
2023-01-10T13:04:38.187Z,72.75
2023-01-10T13:07:06.124Z,72.65
2023-01-10T13:09:33.951Z,72.89
2023-01-10T13:12:02.517Z,73.37
2023-01-10T13:14:30.458Z,73.05
2023-01-10T13:16:58.419Z,73.00
2023-01-10T13:19:26.478Z,72.90
2023-01-10T13:21:54.444Z,72.78
2023-01-10T13:24:22.985Z,72.96
2023-01-10T13:26:51.548Z,73.25
2023-01-10T13:29:19.477Z,73.21
2023-01-10T13:31:49.082Z,72.86
2023-01-10T13:34:17.766Z,72.63
2023-01-10T13:36:46.082Z,72.75
2023-01-10T13:39:15.307Z,72.84
2023-01-10T13:42:00.951Z,72.93
2023-01-10T13:44:28.811Z,72.84
2023-01-10T13:46:56.979Z,72.58
2023-01-10T13:49:24.999Z,72.57
2023-01-10T13:51:52.940Z,72.17
2023-01-10T13:54:20.903Z,72.19
2023-01-10T13:56:49.042Z,72.17
2023-01-10T13:59:34.262Z,72.49
2023-01-10T14:02:19.953Z,72.34
2023-01-10T14:04:48.279Z,72.35
2023-01-10T14:07:16.152Z,72.42
2023-01-10T14:09:45.451Z,72.59
2023-01-10T14:12:13.354Z,72.61
2023-01-10T14:14:41.210Z,72.16
2023-01-10T14:17:09.887Z,72.10
2023-01-10T14:19:37.788Z,72.35
2023-01-10T14:22:05.677Z,71.80
2023-01-10T14:24:33.984Z,72.22
2023-01-10T14:27:01.845Z,72.14
2023-01-10T14:29:31.582Z,72.17
2023-01-10T14:31:59.687Z,71.50
2023-01-10T14:34:27.412Z,71.48
2023-01-10T14:36:55.316Z,71.73
2023-01-10T14:39:23.388Z,70.99
2023-01-10T14:41:51.999Z,71.50
2023-01-10T14:44:19.895Z,71.47
2023-01-10T14:46:48.003Z,71.33
2023-01-10T14:49:15.823Z,71.38
2023-01-10T14:51:43.772Z,71.40
2023-01-10T14:54:12.258Z,71.63
2023-01-10T14:56:40.097Z,71.33
2023-01-10T14:59:08.041Z,71.03
2023-01-10T15:01:36.168Z,71.00
2023-01-10T15:04:04.314Z,70.99
2023-01-10T15:06:36.019Z,71.26
2023-01-10T15:09:04.289Z,70.96
2023-01-10T15:11:32.205Z,70.80
2023-01-10T15:14:00.370Z,71.05
2023-01-10T15:16:29.372Z,70.97
2023-01-10T15:18:58.596Z,70.37
2023-01-10T15:21:26.677Z,70.36
2023-01-10T15:23:54.549Z,70.69
2023-01-10T15:26:22.486Z,70.68
2023-01-10T15:28:51.685Z,70.83
2023-01-10T15:31:19.982Z,70.59
2023-01-10T15:33:47.917Z,70.66
2023-01-10T15:36:15.836Z,70.68
2023-01-10T15:38:43.694Z,70.23
2023-01-10T15:41:12.360Z,70.39
2023-01-10T15:43:40.730Z,70.60
2023-01-10T15:46:09.149Z,70.56
2023-01-10T15:48:37.130Z,70.56
2023-01-10T15:51:06.892Z,70.62
2023-01-10T15:53:34.764Z,70.65
2023-01-10T15:56:02.794Z,70.29
2023-01-10T15:58:30.978Z,70.04
2023-01-10T16:00:59.063Z,70.20
2023-01-10T16:03:27.288Z,70.71
2023-01-10T16:05:56.573Z,69.83
2023-01-10T16:08:25.101Z,70.32
2023-01-10T16:10:53.056Z,70.05
2023-01-10T16:13:29.566Z,70.29
2023-01-10T16:15:58.121Z,70.73
2023-01-10T16:18:26.591Z,70.59
2023-01-10T16:20:54.660Z,70.75
2023-01-10T16:23:22.632Z,70.82
2023-01-10T16:25:50.503Z,70.67
2023-01-10T16:28:18.945Z,71.08
2023-01-10T16:30:47.206Z,71.08
2023-01-10T16:33:16.490Z,71.22
2023-01-10T16:35:44.878Z,71.02
2023-01-10T16:38:12.734Z,70.87
2023-01-10T16:40:40.616Z,71.04
2023-01-10T16:43:19.617Z,71.04
2023-01-10T16:45:47.898Z,71.26
2023-01-10T16:48:15.894Z,71.36
2023-01-10T16:50:44.651Z,71.14
2023-01-10T16:53:12.786Z,71.26
2023-01-10T16:55:41.223Z,71.35
2023-01-10T16:58:09.386Z,71.94
2023-01-10T17:00:37.340Z,71.36
2023-01-10T17:03:05.777Z,71.01
2023-01-10T17:05:33.741Z,71.40
2023-01-10T17:08:01.602Z,71.31
2023-01-10T17:10:29.820Z,71.25
2023-01-10T17:12:57.974Z,71.53
2023-01-10T17:15:26.349Z,71.25
2023-01-10T17:17:54.279Z,71.77
2023-01-10T17:20:22.326Z,72.50
2023-01-10T17:22:50.598Z,71.70
2023-01-10T17:25:18.507Z,71.77
2023-01-10T17:27:47.139Z,71.70
2023-01-10T17:30:15.654Z,72.64
2023-01-10T17:32:43.566Z,73.36
2023-01-10T17:35:11.928Z,74.07
2023-01-10T17:37:40.820Z,74.25
2023-01-10T17:40:09.530Z,74.39
2023-01-10T17:42:37.526Z,74.89
2023-01-10T17:45:05.432Z,75.21
2023-01-10T17:47:33.500Z,76.01
2023-01-10T17:50:01.392Z,76.41
2023-01-10T17:52:29.691Z,76.66
2023-01-10T17:54:59.520Z,76.97
2023-01-10T17:57:27.541Z,77.11
2023-01-10T17:59:56.822Z,77.65
2023-01-10T18:02:24.866Z,77.82
2023-01-10T18:04:53.551Z,78.38
2023-01-10T18:07:21.582Z,78.67
2023-01-10T18:09:49.411Z,78.92
2023-01-10T18:12:17.999Z,79.52
2023-01-10T18:14:47.205Z,79.47
2023-01-10T18:17:15.388Z,79.97
2023-01-10T18:19:43.520Z,80.05
2023-01-10T18:22:25.407Z,80.45
2023-01-10T18:24:54.072Z,80.38
2023-01-10T18:27:22.321Z,80.35
2023-01-10T18:29:50.317Z,80.61
2023-01-10T18:32:18.489Z,80.84
2023-01-10T18:34:47.355Z,80.86
2023-01-10T18:37:15.769Z,80.69
2023-01-10T18:39:44.736Z,81.20
2023-01-10T18:42:13.002Z,81.26
2023-01-10T18:44:41.582Z,81.33
2023-01-10T18:47:09.730Z,81.42
2023-01-10T18:49:38.224Z,81.64
2023-01-10T18:52:07.195Z,81.93
2023-01-10T18:54:35.218Z,81.94
2023-01-10T18:57:03.121Z,82.42
2023-01-10T18:59:31.063Z,82.23
2023-01-10T19:01:59.318Z,82.48
2023-01-10T19:04:27.830Z,82.64
2023-01-10T19:06:56.910Z,82.22
2023-01-10T19:09:24.961Z,82.56
2023-01-10T19:11:52.831Z,82.30
2023-01-10T19:14:21.386Z,82.16
2023-01-10T19:16:49.736Z,82.38
2023-01-10T19:19:17.588Z,82.70
2023-01-10T19:21:45.744Z,82.70
2023-01-10T19:24:13.807Z,82.35
2023-01-10T19:26:42.881Z,82.41
2023-01-10T19:29:11.145Z,81.86
2023-01-10T19:31:39.447Z,81.65
2023-01-10T19:34:07.327Z,81.32
2023-01-10T19:36:35.226Z,81.45
2023-01-10T19:39:03.477Z,81.14
2023-01-10T19:41:31.620Z,81.17
2023-01-10T19:43:59.567Z,80.98
2023-01-10T19:46:27.670Z,80.63
2023-01-10T19:48:55.603Z,81.30
2023-01-10T19:51:23.435Z,80.95
2023-01-10T19:53:51.861Z,80.85
2023-01-10T19:56:23.124Z,80.68
2023-01-10T19:58:51.237Z,80.55
2023-01-10T20:01:20.020Z,80.80
2023-01-10T20:03:48.176Z,80.77
2023-01-10T20:06:17.603Z,80.91
2023-01-10T20:08:45.610Z,80.79
2023-01-10T20:11:13.839Z,80.62
2023-01-10T20:13:44.825Z,80.57
2023-01-10T20:16:13.440Z,80.98
2023-01-10T20:18:41.906Z,80.72
2023-01-10T20:21:09.784Z,80.35
2023-01-10T20:23:37.849Z,81.18
2023-01-10T20:26:06.553Z,80.74
2023-01-10T20:28:34.972Z,80.94
2023-01-10T20:31:03.687Z,81.14
2023-01-10T20:33:34.404Z,80.90
2023-01-10T20:36:03.888Z,80.76
2023-01-10T20:38:31.864Z,80.62
2023-01-10T20:40:59.968Z,81.02
2023-01-10T20:43:28.395Z,81.12
2023-01-10T20:45:56.199Z,80.83
2023-01-10T20:48:24.125Z,81.41
2023-01-10T20:50:52.126Z,81.18
2023-01-10T20:53:20.128Z,81.18
2023-01-10T20:55:59.046Z,80.88
2023-01-10T20:58:27.904Z,80.76
2023-01-10T21:00:55.759Z,80.74
2023-01-10T21:03:23.817Z,80.97
2023-01-10T21:05:52.646Z,81.46
2023-01-10T21:08:20.407Z,80.21
2023-01-10T21:10:48.398Z,80.72
2023-01-10T21:13:16.398Z,80.55
2023-01-10T21:15:44.868Z,81.00
2023-01-10T21:18:13.189Z,80.30
2023-01-10T21:20:41.108Z,80.28
2023-01-10T21:23:09.067Z,80.54
2023-01-10T21:25:37.114Z,79.96
2023-01-10T21:28:09.931Z,80.34
2023-01-10T21:30:38.489Z,79.94
2023-01-10T21:33:06.321Z,80.79
2023-01-10T21:35:34.322Z,80.56
2023-01-10T21:38:02.624Z,80.31
2023-01-10T21:40:32.072Z,80.21
2023-01-10T21:43:00.863Z,80.26
2023-01-10T21:45:29.035Z,79.92
2023-01-10T21:47:56.960Z,80.30
2023-01-10T21:50:25.036Z,80.21
2023-01-10T21:52:53.299Z,80.16
2023-01-10T21:55:21.098Z,80.47
2023-01-10T21:57:49.247Z,80.29
2023-01-10T22:00:17.487Z,80.42
2023-01-10T22:02:45.366Z,79.97
2023-01-10T22:05:13.426Z,80.34
2023-01-10T22:07:41.309Z,80.26
2023-01-10T22:10:09.176Z,80.32
2023-01-10T22:12:37.532Z,80.07
2023-01-10T22:15:05.396Z,80.38
2023-01-10T22:17:33.298Z,79.77
2023-01-10T22:20:01.535Z,79.95
2023-01-10T22:22:29.727Z,79.95
2023-01-10T22:24:57.595Z,79.71
2023-01-10T22:27:25.590Z,79.85
2023-01-10T22:29:53.324Z,79.83
2023-01-10T22:32:21.481Z,79.64
2023-01-10T22:34:49.481Z,79.54
2023-01-10T22:37:17.370Z,79.51
2023-01-10T22:39:47.677Z,79.80
2023-01-10T22:42:16.332Z,79.54
2023-01-10T22:44:44.737Z,79.60
2023-01-10T22:47:12.554Z,79.41
2023-01-10T22:49:40.500Z,79.53
2023-01-10T22:52:08.823Z,80.13
2023-01-10T22:54:36.859Z,79.77
2023-01-10T22:57:04.987Z,79.49
2023-01-10T22:59:34.982Z,79.78
2023-01-10T23:02:02.784Z,79.57
2023-01-10T23:04:30.765Z,79.64
2023-01-10T23:07:00.251Z,79.88
2023-01-10T23:09:28.467Z,79.65
2023-01-10T23:11:56.198Z,79.59
2023-01-10T23:14:23.969Z,79.47
2023-01-10T23:16:51.796Z,79.29
2023-01-10T23:19:19.644Z,79.64
2023-01-10T23:21:47.745Z,79.40
2023-01-10T23:24:16.823Z,79.15
2023-01-10T23:26:44.607Z,79.02
2023-01-10T23:29:12.691Z,79.03
2023-01-10T23:31:41.010Z,79.12
2023-01-10T23:34:09.029Z,79.45
2023-01-10T23:36:36.662Z,79.02
2023-01-10T23:39:04.284Z,79.24
2023-01-10T23:41:32.013Z,79.34
2023-01-10T23:43:59.635Z,79.12
2023-01-10T23:46:27.687Z,79.60
2023-01-10T23:48:55.403Z,79.48
2023-01-10T23:51:23.040Z,79.59
2023-01-10T23:53:50.696Z,79.28
2023-01-10T23:56:18.420Z,79.54
2023-01-10T23:58:46.443Z,79.55
